Oxford, Canada
Current Conditions -  °F | °C
As of 7:41 AM on Friday 24 Oct 2014 (Local Time) from CYQM Reporting Station
Light Rain Light Rain  
Wind Chill: 10°   Ceiling: 500
Heat Index: 10°   Visibility: 1.5mi
Dew Point:   Wind: 16mph
Humidity: 94%   Direction: 30°NNE
Pressure: 29.68"   Gusts: 23mph
Location:  45.73°N, 63.87°W
Report Text: CYQM 241041Z 03014G20KT 1 1/2SM -RA BR OVC005 10/09 A2968 RMK SF8 PRESFR SLP051
Loading
Personal Weather Stations






























Interactive Weather Map
Tropical Storm Tracking
New forecast layout! Learn more

10-Day Weather Forecast

Advertisements
Track Severe Weather on mobile